Time;durP1;ratioP1;P1;durP2;ratioP2;P2;SDS_P1;SDS_P2;PMS_P1;PMS_P2;Temp;Humidity;BMP_temperature;BMP_pressure;BME280_temperature;BME280_humidity;BME280_pressure;Samples;Min_cycle;Max_cycle;Signal;HPM_P1;HPM_P2
2023/04/28 00:00:28;;;;;;;11.30;7.80;;;;;;;12.08;83.29;97957.59;4170755;28;21246;-75
2023/04/28 00:02:31;;;;;;;10.00;8.03;;;;;;;12.08;83.53;97965.44;4166878;28;20673;-75
2023/04/28 00:04:34;;;;;;;9.70;7.93;;;;;;;12.05;82.48;97960.47;4167477;28;20641;-75
2023/04/28 00:06:39;;;;;;;10.50;8.13;;;;;;;12.06;83.74;97958.69;4163818;28;20649;-75
2023/04/28 00:08:43;;;;;;;10.37;8.83;;;;;;;12.04;82.26;97966.66;4163750;28;20679;-75
2023/04/28 00:10:46;;;;;;;9.23;7.90;;;;;;;12.03;83.21;97967.59;4163478;28;20657;-76
2023/04/28 00:12:49;;;;;;;10.60;8.40;;;;;;;12.04;83.00;97956.19;4161280;28;20681;-76
2023/04/28 00:14:54;;;;;;;8.67;7.77;;;;;;;12.03;82.85;97944.06;4165208;28;21220;-76
2023/04/28 00:16:58;;;;;;;12.27;8.60;;;;;;;12.03;84.27;97940.63;4161990;28;20665;-75
2023/04/28 00:19:01;;;;;;;9.00;8.03;;;;;;;12.03;82.67;97943.25;4165000;28;20665;-76
2023/04/28 00:21:05;;;;;;;8.77;7.90;;;;;;;12.02;83.46;97936.34;4168715;28;20641;-75
2023/04/28 00:23:08;;;;;;;8.67;7.77;;;;;;;12.00;83.91;97939.06;4167956;28;20639;-76
2023/04/28 00:25:11;;;;;;;9.40;8.43;;;;;;;12.01;81.54;97938.13;4162272;28;21346;-75
2023/04/28 00:27:14;;;;;;;10.50;7.80;;;;;;;12.02;84.02;97931.13;4164531;28;21390;-76
2023/04/28 00:29:18;;;;;;;9.00;7.80;;;;;;;12.01;83.29;97929.44;4168611;28;21224;-75
2023/04/28 00:31:22;;;;;;;9.10;8.20;;;;;;;12.02;82.45;97931.94;4159543;28;21302;-75
2023/04/28 00:33:25;;;;;;;9.40;8.50;;;;;;;12.02;83.29;97936.34;4167748;28;20700;-75
2023/04/28 00:35:28;;;;;;;9.83;8.80;;;;;;;12.02;83.26;97934.56;4166633;28;20685;-75
2023/04/28 00:37:31;;;;;;;8.63;7.77;;;;;;;12.03;83.75;97933.63;4161035;28;21063;-76
2023/04/28 00:39:34;;;;;;;9.50;8.13;;;;;;;12.04;83.04;97940.50;4163578;28;20639;-75
2023/04/28 00:41:38;;;;;;;11.67;8.40;;;;;;;12.04;84.20;97939.66;4150654;28;20637;-75
2023/04/28 00:43:45;;;;;;;9.17;8.23;;;;;;;12.05;84.32;97938.72;4167988;28;20666;-75
2023/04/28 00:45:49;;;;;;;10.20;8.67;;;;;;;12.05;82.89;97930.88;4162823;28;20780;-76
2023/04/28 00:47:55;;;;;;;9.87;8.87;;;;;;;12.04;84.51;97930.06;4140407;28;20666;-75
2023/04/28 00:49:58;;;;;;;13.73;9.13;;;;;;;12.07;84.07;97929.81;4163220;28;20640;-76
2023/04/28 00:52:04;;;;;;;11.23;9.83;;;;;;;12.07;83.66;97926.34;4169207;28;20641;-75
2023/04/28 00:54:08;;;;;;;11.10;8.80;;;;;;;12.07;84.87;97924.59;4154113;28;21689;-75
2023/04/28 00:56:11;;;;;;;9.50;8.40;;;;;;;12.09;84.51;97922.69;4168929;28;20675;-75
2023/04/28 00:58:14;;;;;;;9.73;8.33;;;;;;;12.11;85.18;97925.19;4164116;28;21226;-75
2023/04/28 01:00:18;;;;;;;9.30;8.40;;;;;;;12.12;84.26;97926.81;4155726;28;20627;-76
2023/04/28 01:02:22;;;;;;;11.40;8.40;;;;;;;12.11;84.58;97920.78;4162383;28;20722;-75
2023/04/28 01:04:27;;;;;;;9.10;7.60;;;;;;;12.13;84.61;97928.50;4163087;28;20712;-75
2023/04/28 01:06:31;;;;;;;8.53;7.63;;;;;;;12.11;84.85;97918.16;4161832;28;21237;-75
2023/04/28 01:08:37;;;;;;;9.80;7.93;;;;;;;12.11;84.93;97912.94;4161220;28;20637;-76
2023/04/28 01:10:45;;;;;;;9.90;8.30;;;;;;;12.11;85.55;97904.28;4163903;28;20641;-75
2023/04/28 01:13:04;;;;;;;8.80;7.87;;;;;;;12.11;84.35;97901.66;4150092;28;20667;-76
2023/04/28 01:15:08;;;;;;;10.97;8.90;;;;;;;12.10;84.38;97898.19;4176761;28;20641;-75
2023/04/28 01:17:11;;;;;;;10.10;9.07;;;;;;;12.12;84.55;97898.06;4165754;28;21944;-76
2023/04/28 01:19:20;;;;;;;9.33;8.30;;;;;;;12.12;83.72;97891.09;4170765;28;20673;-75
2023/04/28 01:21:31;;;;;;;9.20;8.30;;;;;;;12.13;84.74;97882.25;4165522;28;20621;-76
2023/04/28 01:23:38;;;;;;;9.60;8.20;;;;;;;12.12;83.40;97883.25;4147792;28;20640;-75
2023/04/28 01:25:44;;;;;;;9.80;8.87;;;;;;;12.13;84.95;97876.22;4148122;28;20649;-75
2023/04/28 01:27:47;;;;;;;11.00;8.57;;;;;;;12.14;85.02;97885.72;4170127;28;20664;-75
2023/04/28 01:29:51;;;;;;;10.23;9.23;;;;;;;12.12;84.33;97878.00;4168581;28;21204;-75
2023/04/28 01:31:54;;;;;;;10.23;9.20;;;;;;;12.12;83.34;97880.63;4156091;28;20700;-75
2023/04/28 01:33:57;;;;;;;10.67;9.40;;;;;;;12.11;85.26;97884.19;4164458;28;20640;-75
2023/04/28 01:36:00;;;;;;;11.67;9.87;;;;;;;12.11;84.24;97896.44;4166198;28;20679;-76
2023/04/28 01:38:03;;;;;;;11.33;8.80;;;;;;;12.13;84.62;97886.69;4171716;28;21064;-75
2023/04/28 01:40:08;;;;;;;9.97;8.90;;;;;;;12.13;84.30;97895.34;4160397;28;20737;-75
2023/04/28 01:42:13;;;;;;;10.10;9.13;;;;;;;12.14;83.69;97889.16;4172626;28;20736;-75
2023/04/28 01:44:36;;;;;;;9.80;8.80;;;;;;;12.16;85.25;97887.25;4154254;28;21042;-76
2023/04/28 01:46:40;;;;;;;10.00;8.93;;;;;;;12.14;85.04;97886.56;4167421;28;20637;-76
2023/04/28 01:48:43;;;;;;;10.20;9.17;;;;;;;12.14;84.77;97883.94;4163567;28;20711;-76
2023/04/28 01:50:47;;;;;;;9.87;8.90;;;;;;;12.16;85.67;97895.09;4172657;28;21058;-75
2023/04/28 01:52:50;;;;;;;9.40;8.50;;;;;;;12.14;85.40;97893.59;4165062;28;20628;-75
2023/04/28 01:55:30;;;;;;;9.90;9.00;;;;;;;12.14;83.95;97878.72;4163278;28;21041;-76
2023/04/28 01:57:36;;;;;;;10.60;8.80;;;;;;;12.15;86.10;97874.31;4145572;28;20716;-76
2023/04/28 01:59:39;;;;;;;11.70;9.63;;;;;;;12.16;85.62;97870.75;4163687;28;20651;-75
2023/04/28 02:01:43;;;;;;;9.10;8.30;;;;;;;12.15;85.41;97869.06;4151432;28;20632;-76
2023/04/28 02:03:47;;;;;;;10.20;9.20;;;;;;;12.16;86.38;97878.59;4149299;28;20745;-76
2023/04/28 02:05:51;;;;;;;10.63;9.63;;;;;;;12.12;85.79;97869.31;4151620;28;20657;-75
2023/04/28 02:07:54;;;;;;;10.77;9.67;;;;;;;12.08;85.99;97865.28;4163475;28;20658;-75
2023/04/28 02:09:58;;;;;;;10.47;9.00;;;;;;;12.07;86.45;97871.47;4150303;28;20630;-76
2023/04/28 02:12:01;;;;;;;10.30;9.23;;;;;;;12.02;88.45;97853.53;4150950;28;20642;-76
2023/04/28 02:14:06;;;;;;;9.87;8.40;;;;;;;12.01;86.54;97854.50;4147094;28;20645;-76
2023/04/28 02:16:09;;;;;;;10.10;9.10;;;;;;;12.01;86.06;97859.72;4181516;28;20671;-76
2023/04/28 02:18:12;;;;;;;9.83;8.63;;;;;;;12.01;86.29;97854.50;4168013;28;20632;-76
2023/04/28 02:20:15;;;;;;;11.47;10.00;;;;;;;12.01;85.07;97856.25;4162562;28;20670;-76
2023/04/28 02:22:18;;;;;;;10.17;9.27;;;;;;;12.01;86.52;97857.09;4168401;28;20687;-75
2023/04/28 02:24:21;;;;;;;12.20;9.40;;;;;;;12.03;87.24;97860.44;4161533;28;20634;-76
2023/04/28 02:26:25;;;;;;;12.13;8.57;;;;;;;12.03;87.15;97851.75;4156776;28;21073;-75
2023/04/28 02:28:47;;;;;;;9.87;8.87;;;;;;;12.03;87.33;97860.44;4164922;28;20662;-76
2023/04/28 02:30:52;;;;;;;9.70;8.40;;;;;;;12.02;88.15;97856.13;4166920;28;20641;-75
2023/04/28 02:32:55;;;;;;;10.37;9.27;;;;;;;12.01;87.09;97851.88;4166191;28;21240;-75
2023/04/28 02:34:59;;;;;;;13.10;9.10;;;;;;;12.02;88.46;97844.88;4164782;28;20636;-75
2023/04/28 02:37:02;;;;;;;10.10;9.10;;;;;;;12.02;88.31;97855.31;4149808;28;21020;-76
2023/04/28 02:39:05;;;;;;;10.23;9.17;;;;;;;12.02;89.56;97863.16;4165188;28;20696;-76
2023/04/28 02:41:09;;;;;;;10.53;9.43;;;;;;;12.00;88.78;97858.06;4167630;28;21225;-75
2023/04/28 02:43:12;;;;;;;10.40;9.37;;;;;;;11.99;89.17;97845.91;4163982;28;20650;-75
2023/04/28 02:45:15;;;;;;;10.53;9.43;;;;;;;11.99;88.03;97843.31;4170933;28;21234;-75
2023/04/28 02:47:20;;;;;;;11.27;9.77;;;;;;;11.99;87.91;97853.75;4152035;28;20650;-76
2023/04/28 02:49:23;;;;;;;11.87;9.47;;;;;;;11.96;87.78;97847.94;4171601;28;21217;-75
2023/04/28 02:51:27;;;;;;;10.10;8.67;;;;;;;11.96;89.36;97850.56;4173452;28;20629;-75
2023/04/28 02:53:30;;;;;;;10.87;9.77;;;;;;;11.95;90.03;97849.75;4160356;28;20643;-75
2023/04/28 02:55:33;;;;;;;9.80;8.90;;;;;;;11.95;88.80;97849.75;4162607;28;20654;-75
2023/04/28 02:57:37;;;;;;;11.70;10.10;;;;;;;11.95;89.98;97847.13;4162788;28;20647;-75
2023/04/28 02:59:40;;;;;;;10.40;9.40;;;;;;;11.94;90.84;97837.63;4166842;28;20646;-76
2023/04/28 03:01:43;;;;;;;12.53;10.33;;;;;;;11.96;89.98;97840.94;4153102;28;21229;-76
2023/04/28 03:03:48;;;;;;;10.23;9.10;;;;;;;11.97;90.03;97837.38;4152277;28;20638;-75
2023/04/28 03:05:51;;;;;;;10.57;9.57;;;;;;;11.98;88.80;97843.44;4165224;28;20710;-75
2023/04/28 03:07:55;;;;;;;10.27;9.27;;;;;;;11.97;91.01;97842.59;4153397;28;20716;-75
2023/04/28 03:09:58;;;;;;;10.60;9.60;;;;;;;11.97;89.52;97833.94;4150239;28;20654;-76
2023/04/28 03:12:02;;;;;;;10.60;9.50;;;;;;;11.97;89.35;97840.00;4162782;28;20641;-75
2023/04/28 03:14:06;;;;;;;10.10;9.10;;;;;;;11.99;90.58;97837.25;4146330;28;20649;-75
2023/04/28 03:16:09;;;;;;;9.83;8.70;;;;;;;11.99;90.01;97843.31;4163084;28;20632;-75
2023/04/28 03:18:13;;;;;;;13.33;9.30;;;;;;;12.00;90.13;97834.53;4164602;28;20632;-76
2023/04/28 03:20:17;;;;;;;10.73;9.50;;;;;;;12.00;89.77;97839.75;4162697;28;21281;-75
2023/04/28 03:22:20;;;;;;;9.87;8.87;;;;;;;12.01;90.94;97848.41;4170782;28;20646;-75
2023/04/28 03:24:24;;;;;;;10.20;9.30;;;;;;;12.00;90.30;97854.63;4169310;28;20635;-75
2023/04/28 03:26:27;;;;;;;10.17;9.03;;;;;;;12.02;90.46;97852.69;4154953;28;20687;-75
2023/04/28 03:28:30;;;;;;;9.47;8.57;;;;;;;12.02;92.18;97855.31;4166907;28;20660;-75
2023/04/28 03:30:35;;;;;;;9.57;8.57;;;;;;;12.02;90.22;97847.47;4154063;28;20622;-75
2023/04/28 03:32:38;;;;;;;10.17;8.70;;;;;;;12.03;91.03;97849.16;4162004;28;20733;-75
2023/04/28 03:34:42;;;;;;;9.67;8.67;;;;;;;12.04;92.88;97851.66;4169027;28;24659;-76
2023/04/28 03:36:47;;;;;;;10.57;9.17;;;;;;;12.05;92.26;97847.25;4165250;28;20645;-76
2023/04/28 03:38:58;;;;;;;11.90;10.13;;;;;;;12.04;91.25;97846.41;4147844;28;21259;-75
2023/04/28 03:41:01;;;;;;;11.90;9.00;;;;;;;12.05;92.35;97849.84;4166405;28;20637;-76
2023/04/28 03:43:04;;;;;;;10.97;9.87;;;;;;;12.05;91.39;97845.44;4163696;28;20740;-76
2023/04/28 03:45:12;;;;;;;12.87;10.77;;;;;;;12.04;91.90;97827.28;4141809;28;20733;-76
2023/04/28 03:47:15;;;;;;;10.70;9.70;;;;;;;12.06;91.15;97822.78;4150332;28;20694;-76
2023/04/28 03:49:19;;;;;;;11.23;9.97;;;;;;;12.08;93.23;97826.09;4163998;28;21288;-75
2023/04/28 03:51:22;;;;;;;11.53;9.93;;;;;;;12.07;91.72;97827.88;4165627;28;20732;-76
2023/04/28 03:53:26;;;;;;;10.50;9.40;;;;;;;12.07;92.22;97812.19;4164980;28;21210;-76
2023/04/28 03:55:30;;;;;;;11.40;9.90;;;;;;;12.09;92.29;97812.91;4167728;28;20662;-75
2023/04/28 03:57:33;;;;;;;12.47;9.67;;;;;;;12.10;92.91;97813.72;4155202;28;20634;-76
2023/04/28 03:59:35;;;;;;;11.70;9.40;;;;;;;12.10;92.33;97813.72;4158074;28;20643;-75
2023/04/28 04:01:38;;;;;;;12.30;10.03;;;;;;;12.09;93.71;97812.91;4147643;28;21181;-75
2023/04/28 04:03:41;;;;;;;10.90;8.73;;;;;;;12.06;91.87;97807.91;4158925;28;20673;-75
2023/04/28 04:05:47;;;;;;;10.43;9.10;;;;;;;12.03;93.31;97807.34;4168897;28;21053;-75
2023/04/28 04:07:50;;;;;;;13.07;9.50;;;;;;;12.01;91.94;97812.69;4169768;28;20632;-75
2023/04/28 04:09:55;;;;;;;12.03;9.90;;;;;;;12.02;93.94;97816.13;4163008;28;21229;-75
2023/04/28 04:11:59;;;;;;;9.03;8.10;;;;;;;12.06;93.49;97813.13;4164040;28;21007;-75
2023/04/28 04:14:03;;;;;;;9.50;8.27;;;;;;;12.12;95.14;97823.13;4149326;28;20627;-75
2023/04/28 04:16:07;;;;;;;10.20;9.10;;;;;;;12.14;95.65;97805.50;4152900;28;21565;-76
2023/04/28 04:18:11;;;;;;;12.27;10.80;;;;;;;12.16;94.34;97810.63;4138863;28;21309;-75
2023/04/28 04:20:37;;;;;;;12.90;10.87;;;;;;;12.11;94.95;97808.38;4170672;28;20646;-75
2023/04/28 04:22:40;;;;;;;12.27;10.80;;;;;;;12.06;94.21;97807.09;4160588;28;20627;-75
2023/04/28 04:24:43;;;;;;;12.67;11.37;;;;;;;12.02;93.67;97808.28;4165986;28;20641;-76
2023/04/28 04:26:48;;;;;;;12.87;11.40;;;;;;;11.98;94.88;97814.69;4146774;28;20704;-76
2023/04/28 04:29:03;;;;;;;13.60;10.97;;;;;;;11.99;95.43;97817.16;4168404;28;20688;-75
2023/04/28 04:31:08;;;;;;;13.77;11.50;;;;;;;12.02;95.13;97816.13;4143512;28;21157;-75
2023/04/28 04:33:11;;;;;;;13.53;10.60;;;;;;;12.02;96.25;97814.31;4167150;28;21144;-75
2023/04/28 04:35:14;;;;;;;11.87;10.50;;;;;;;12.03;95.65;97825.63;4160750;28;20672;-75
2023/04/28 04:37:18;;;;;;;14.50;10.40;;;;;;;12.03;95.68;97825.63;4162387;28;20645;-75
2023/04/28 04:39:41;;;;;;;13.53;10.30;;;;;;;12.05;96.99;97824.53;4163950;28;20680;-75
2023/04/28 04:41:45;;;;;;;16.03;11.60;;;;;;;12.06;95.95;97830.63;4162973;28;21090;-76
2023/04/28 04:44:06;;;;;;;13.43;11.67;;;;;;;12.07;95.76;97825.28;4170156;28;20679;-75
2023/04/28 04:46:15;;;;;;;12.33;10.50;;;;;;;12.06;95.50;97818.38;4161486;28;20637;-75
2023/04/28 04:48:18;;;;;;;14.17;12.03;;;;;;;12.06;95.11;97831.44;4145122;28;20650;-76
2023/04/28 04:50:21;;;;;;;13.03;11.47;;;;;;;12.06;96.47;97834.06;4160356;28;20662;-75
2023/04/28 04:52:25;;;;;;;13.67;12.10;;;;;;;12.07;94.46;97830.50;4168678;28;20650;-75
2023/04/28 04:54:29;;;;;;;16.00;11.57;;;;;;;12.07;96.13;97833.09;4171192;28;20637;-75
2023/04/28 04:56:33;;;;;;;15.30;11.87;;;;;;;12.10;95.36;97822.38;4160743;28;20627;-76
2023/04/28 04:58:37;;;;;;;13.83;11.80;;;;;;;12.11;95.95;97829.28;4155444;28;20626;-76
2023/04/28 05:01:08;;;;;;;13.90;11.30;;;;;;;12.14;95.31;97829.03;4162709;28;20728;-75
2023/04/28 05:03:12;;;;;;;12.47;11.27;;;;;;;12.16;95.27;97834.97;4151186;28;20696;-75
2023/04/28 05:05:16;;;;;;;13.30;11.90;;;;;;;12.17;95.27;97830.59;4165613;28;20696;-75
2023/04/28 05:07:47;;;;;;;12.90;11.70;;;;;;;12.19;96.58;97815.59;4151276;28;21209;-76
2023/04/28 05:10:10;;;;;;;13.07;11.13;;;;;;;12.21;96.33;97827.63;4167261;28;21617;-75
2023/04/28 05:12:15;;;;;;;11.80;10.70;;;;;;;12.24;96.59;97819.53;4151396;28;21181;-75
2023/04/28 05:14:18;;;;;;;14.10;12.37;;;;;;;12.27;97.73;97811.44;4142716;28;20638;-75
2023/04/28 05:16:23;;;;;;;14.23;11.80;;;;;;;12.28;96.64;97810.47;4130464;28;20641;-75
2023/04/28 05:18:46;;;;;;;14.00;12.07;;;;;;;12.30;95.85;97805.97;4158609;28;20642;-75
2023/04/28 05:20:49;;;;;;;13.03;11.00;;;;;;;12.33;96.26;97810.97;4153221;28;20731;-75
2023/04/28 05:22:54;;;;;;;14.00;11.27;;;;;;;12.32;96.45;97815.34;4150787;28;20701;-74
2023/04/28 05:24:57;;;;;;;13.27;11.97;;;;;;;12.34;96.24;97812.59;4146837;28;20665;-75
2023/04/28 05:27:01;;;;;;;13.10;11.10;;;;;;;12.38;96.69;97827.09;4167168;28;20626;-74
2023/04/28 05:29:04;;;;;;;14.67;12.20;;;;;;;12.38;97.63;97824.50;4159961;28;21003;-74
2023/04/28 05:31:07;;;;;;;13.67;12.23;;;;;;;12.42;96.74;97823.31;4148186;28;21248;-74
2023/04/28 05:33:12;;;;;;;14.40;12.93;;;;;;;12.43;97.02;97822.34;4165743;28;21370;-74
2023/04/28 05:35:16;;;;;;;15.40;13.10;;;;;;;12.45;98.46;97820.44;4153678;28;20631;-74
2023/04/28 05:37:19;;;;;;;17.00;13.97;;;;;;;12.47;96.63;97823.75;4145802;28;20691;-75
2023/04/28 05:39:22;;;;;;;16.53;12.43;;;;;;;12.48;98.00;97820.16;4144204;28;21038;-74
2023/04/28 05:41:26;;;;;;;14.83;12.17;;;;;;;12.51;97.33;97814.69;4151115;28;20674;-74
2023/04/28 05:43:30;;;;;;;13.80;11.60;;;;;;;12.52;98.01;97811.13;4166123;28;20739;-74
2023/04/28 05:45:33;;;;;;;14.33;12.73;;;;;;;12.54;96.85;97815.28;4148398;28;21067;-74
2023/04/28 05:47:38;;;;;;;15.70;12.57;;;;;;;12.54;96.13;97815.28;4168988;28;21072;-76
2023/04/28 05:49:42;;;;;;;12.67;11.47;;;;;;;12.58;96.02;97813.25;4158821;28;21323;-76
2023/04/28 05:51:46;;;;;;;17.40;13.07;;;;;;;12.58;97.76;97815.88;4143891;28;20643;-76
2023/04/28 05:53:51;;;;;;;17.77;12.77;;;;;;;12.60;97.04;97820.03;4152463;28;20647;-76
2023/04/28 05:55:55;;;;;;;15.53;12.30;;;;;;;12.62;97.27;97820.75;4138847;28;20642;-76
2023/04/28 05:57:58;;;;;;;16.43;10.33;;;;;;;12.66;96.50;97824.78;4155663;28;21064;-76
2023/04/28 06:00:02;;;;;;;13.33;11.30;;;;;;;12.71;98.22;97822.63;4162796;28;20638;-76
2023/04/28 06:02:14;;;;;;;11.97;10.67;;;;;;;12.75;97.36;97817.00;4156881;28;21010;-76
2023/04/28 06:04:17;;;;;;;11.37;10.17;;;;;;;12.78;97.25;97821.16;4145742;28;20643;-76
2023/04/28 06:06:24;;;;;;;11.57;9.60;;;;;;;12.81;98.35;97816.50;4178907;28;20711;-76
2023/04/28 06:08:28;;;;;;;10.90;9.20;;;;;;;12.90;97.14;97825.41;4164853;28;20645;-76
2023/04/28 06:10:31;;;;;;;9.97;8.97;;;;;;;12.98;96.88;97830.88;4155703;28;20654;-76
2023/04/28 06:12:35;;;;;;;13.50;11.30;;;;;;;13.03;97.77;97824.28;4164907;28;20639;-76
2023/04/28 06:14:39;;;;;;;14.17;11.90;;;;;;;13.05;97.80;97819.78;4166975;28;20684;-76
2023/04/28 06:16:42;;;;;;;13.90;11.80;;;;;;;13.06;99.35;97824.03;4169990;28;20637;-76
2023/04/28 06:18:45;;;;;;;15.13;13.52;;;;;;;13.08;97.85;97827.38;4168987;28;20761;-76
2023/04/28 06:20:51;;;;;;;17.93;13.23;;;;;;;13.11;98.50;97828.88;4170191;28;20235;-76
2023/04/28 06:22:57;;;;;;;14.90;12.17;;;;;;;13.13;99.76;97829.63;4152736;28;20642;-76
2023/04/28 06:25:00;;;;;;;14.10;12.07;;;;;;;13.15;99.49;97825.91;4164408;28;21103;-76
2023/04/28 06:27:09;;;;;;;13.70;12.30;;;;;;;13.17;98.83;97829.22;4155747;28;20677;-76
2023/04/28 06:29:12;;;;;;;13.00;11.50;;;;;;;13.19;98.75;97841.22;4170861;28;20687;-76
2023/04/28 06:31:15;;;;;;;12.80;11.50;;;;;;;13.23;99.12;97845.25;4171146;28;20761;-76
2023/04/28 06:33:19;;;;;;;17.80;13.23;;;;;;;13.25;99.74;97845.97;4163377;28;20642;-76
2023/04/28 06:35:23;;;;;;;13.40;12.03;;;;;;;13.25;99.58;97842.53;4147702;28;21394;-76
2023/04/28 06:37:26;;;;;;;13.17;11.87;;;;;;;13.27;98.55;97837.97;4154493;28;20636;-76
2023/04/28 06:39:31;;;;;;;13.80;12.30;;;;;;;13.28;99.89;97832.59;4154960;28;20642;-76
2023/04/28 06:41:34;;;;;;;15.73;11.90;;;;;;;13.29;98.95;97839.53;4148810;28;20747;-76
2023/04/28 06:43:39;;;;;;;13.83;12.40;;;;;;;13.32;99.28;97839.25;4157088;28;21289;-76
2023/04/28 06:45:47;;;;;;;14.07;12.60;;;;;;;13.33;99.92;97835.66;4156735;28;21227;-76
2023/04/28 06:47:51;;;;;;;10.10;8.83;;;;;;;13.37;99.65;97833.66;4170909;28;20926;-76
2023/04/28 06:49:54;;;;;;;8.00;7.20;;;;;;;13.43;100.00;97835.75;4165926;28;20660;-76
2023/04/28 06:51:57;;;;;;;8.87;7.97;;;;;;;13.50;99.68;97835.13;4156054;28;20651;-75
2023/04/28 06:54:03;;;;;;;8.23;6.87;;;;;;;13.54;100.00;97839.13;4157573;28;21194;-76
2023/04/28 06:56:08;;;;;;;7.73;6.90;;;;;;;13.56;100.00;97834.59;4169194;28;20658;-76
2023/04/28 06:58:13;;;;;;;8.40;7.00;;;;;;;13.58;100.00;97831.84;4170690;28;20765;-76
2023/04/28 07:00:17;;;;;;;7.87;6.43;;;;;;;13.58;100.00;97831.84;4167994;28;20646;-76
2023/04/28 07:02:20;;;;;;;6.40;5.80;;;;;;;13.57;100.00;97827.56;4165649;28;20642;-76
2023/04/28 07:04:24;;;;;;;7.80;7.00;;;;;;;13.54;100.00;97826.00;4164472;28;21186;-76
2023/04/28 07:06:28;;;;;;;6.57;5.97;;;;;;;13.52;100.00;97816.63;4169956;28;21226;-77
2023/04/28 07:08:31;;;;;;;7.87;6.10;;;;;;;13.50;100.00;97818.53;4165178;28;20631;-76
2023/04/28 07:10:34;;;;;;;8.47;6.67;;;;;;;13.47;100.00;97834.50;4169705;28;20646;-76
2023/04/28 07:12:39;;;;;;;7.60;6.40;;;;;;;13.46;100.00;97838.13;4168776;28;20643;-76
2023/04/28 07:14:42;;;;;;;8.50;6.87;;;;;;;13.42;100.00;97832.28;4172841;28;20634;-76
2023/04/28 07:16:46;;;;;;;8.40;6.50;;;;;;;13.42;100.00;97815.75;4165944;28;20712;-76
2023/04/28 07:18:50;;;;;;;7.10;5.77;;;;;;;13.39;100.00;97798.47;4167575;28;21128;-76
2023/04/28 07:20:53;;;;;;;11.80;7.20;;;;;;;13.33;100.00;97801.63;4156186;28;21268;-76
2023/04/28 07:22:56;;;;;;;8.50;7.37;;;;;;;13.29;100.00;97805.47;4164187;28;20783;-76
2023/04/28 07:24:59;;;;;;;8.90;7.40;;;;;;;13.30;100.00;97806.28;4169668;28;20639;-76
2023/04/28 07:27:03;;;;;;;9.37;7.43;;;;;;;13.30;100.00;97801.88;4171266;28;20716;-76
2023/04/28 07:29:09;;;;;;;9.20;7.80;;;;;;;13.31;100.00;97806.16;4185094;28;20635;-76
2023/04/28 07:31:12;;;;;;;7.87;7.07;;;;;;;13.32;100.00;97804.34;4165177;28;20667;-76
2023/04/28 07:33:15;;;;;;;8.37;6.90;;;;;;;13.32;100.00;97807.84;4168840;28;20645;-76
2023/04/28 07:35:18;;;;;;;8.77;7.07;;;;;;;13.33;100.00;97811.28;4172287;28;20651;-76
2023/04/28 07:37:22;;;;;;;8.10;7.20;;;;;;;13.35;100.00;97820.66;4169013;28;20741;-76
2023/04/28 07:39:25;;;;;;;7.50;6.30;;;;;;;13.37;100.00;97834.47;4166356;28;20642;-77
2023/04/28 07:41:28;;;;;;;7.70;6.70;;;;;;;13.34;100.00;97824.25;4162252;28;20701;-75
2023/04/28 07:43:31;;;;;;;9.70;7.00;;;;;;;13.37;100.00;97812.69;4170099;28;21070;-75
2023/04/28 07:45:38;;;;;;;7.40;6.50;;;;;;;13.40;100.00;97809.81;4168796;28;21392;-75
2023/04/28 07:47:41;;;;;;;8.43;6.63;;;;;;;13.45;100.00;97813.69;4166866;28;20754;-75
2023/04/28 07:49:44;;;;;;;7.80;7.00;;;;;;;13.46;100.00;97817.16;4153610;28;21197;-75
2023/04/28 07:51:48;;;;;;;9.23;6.30;;;;;;;13.48;100.00;97813.44;4168916;28;20657;-75
2023/04/28 07:53:51;;;;;;;9.07;7.00;;;;;;;13.51;100.00;97815.78;4157491;28;20641;-75
2023/04/28 07:55:55;;;;;;;7.53;6.40;;;;;;;13.51;100.00;97810.56;4166128;28;20685;-75
2023/04/28 07:57:58;;;;;;;7.90;6.50;;;;;;;13.51;100.00;97830.69;4167332;28;20722;-75
2023/04/28 08:00:02;;;;;;;8.10;7.00;;;;;;;13.48;100.00;97831.75;4168397;28;20638;-76
2023/04/28 08:02:15;;;;;;;8.27;7.37;;;;;;;13.49;100.00;97827.38;4172656;28;21206;-75
2023/04/28 08:04:18;;;;;;;9.37;7.50;;;;;;;13.54;100.00;97826.00;4159922;28;20698;-75
2023/04/28 08:06:22;;;;;;;8.73;7.83;;;;;;;13.58;100.00;97832.66;4152094;28;20748;-75
2023/04/28 08:08:26;;;;;;;31.30;28.77;;;;;;;13.62;100.00;97835.84;4154147;28;20628;-75
2023/04/28 08:10:29;;;;;;;27.63;25.23;;;;;;;13.66;100.00;97840.72;4167360;28;20631;-76
2023/04/28 08:12:32;;;;;;;31.27;28.30;;;;;;;13.71;100.00;97841.13;4172635;28;21234;-75
2023/04/28 08:14:35;;;;;;;10.73;9.60;;;;;;;13.76;100.00;97846.84;4160512;28;20634;-75
2023/04/28 08:16:40;;;;;;;9.77;8.77;;;;;;;13.80;100.00;97849.06;4147850;28;21223;-75
2023/04/28 08:18:44;;;;;;;8.27;7.47;;;;;;;13.84;100.00;97841.78;4171662;28;20643;-75
2023/04/28 08:20:48;;;;;;;13.73;7.77;;;;;;;13.89;100.00;97848.28;4166893;28;20627;-75
2023/04/28 08:22:51;;;;;;;70.33;57.87;;;;;;;13.93;100.00;97848.84;4168366;28;20619;-75
2023/04/28 08:24:54;;;;;;;29.93;26.73;;;;;;;13.98;100.00;97852.75;4170232;28;20686;-74
2023/04/28 08:26:57;;;;;;;10.83;8.83;;;;;;;14.04;100.00;97851.38;4170064;28;20734;-74
2023/04/28 08:29:00;;;;;;;12.03;8.40;;;;;;;14.09;100.00;97846.59;4170867;28;20685;-75
2023/04/28 08:31:04;;;;;;;10.30;8.70;;;;;;;14.14;100.00;97847.88;4168962;28;21284;-74
2023/04/28 08:33:08;;;;;;;8.30;7.00;;;;;;;14.20;100.00;97844.72;4166459;28;20657;-75
2023/04/28 08:35:14;;;;;;;9.73;8.57;;;;;;;14.25;100.00;97845.13;4164701;28;20665;-75
2023/04/28 08:37:17;;;;;;;5.70;5.17;;;;;;;14.30;100.00;97854.28;4170624;28;20674;-75
2023/04/28 08:39:22;;;;;;;6.53;5.10;;;;;;;14.33;100.00;97854.03;4166665;28;20647;-75
2023/04/28 08:41:26;;;;;;;7.10;4.57;;;;;;;14.37;100.00;97860.66;4181358;28;20647;-75
2023/04/28 08:43:30;;;;;;;6.60;4.20;;;;;;;14.40;100.00;97863.03;4181265;28;21058;-75
2023/04/28 08:45:44;;;;;;;12.40;5.80;;;;;;;14.44;100.00;97864.41;4165976;28;21221;-75
2023/04/28 08:47:49;;;;;;;6.37;4.60;;;;;;;14.47;100.00;97858.06;4172863;28;21037;-75
2023/04/28 08:49:53;;;;;;;5.63;5.13;;;;;;;14.50;100.00;97855.16;4169932;28;20734;-75
2023/04/28 08:52:00;;;;;;;7.03;6.33;;;;;;;14.52;100.00;97855.84;4168852;28;20702;-75
2023/04/28 08:54:04;;;;;;;5.67;4.80;;;;;;;14.53;100.00;97860.16;4167986;28;20639;-75
2023/04/28 08:56:12;;;;;;;5.17;4.67;;;;;;;14.50;100.00;97861.25;4167212;28;20634;-75
2023/04/28 08:58:15;;;;;;;6.40;5.20;;;;;;;14.49;100.00;97874.50;4163728;28;21245;-75
2023/04/28 09:00:18;;;;;;;5.20;4.70;;;;;;;14.54;100.00;97877.53;4167761;28;20640;-75
2023/04/28 09:02:22;;;;;;;5.40;4.90;;;;;;;14.53;100.00;97873.28;4164367;28;20674;-75
2023/04/28 09:04:25;;;;;;;6.10;5.13;;;;;;;14.55;100.00;97880.03;4167911;28;20956;-75
2023/04/28 09:06:32;;;;;;;5.40;4.93;;;;;;;14.59;100.00;97882.25;4168225;28;20672;-75
2023/04/28 09:08:37;;;;;;;7.20;5.50;;;;;;;14.66;100.00;97877.31;4167043;28;20629;-75
2023/04/28 09:10:41;;;;;;;5.77;5.03;;;;;;;14.72;100.00;97895.16;4175090;28;20647;-75
2023/04/28 09:12:44;;;;;;;5.53;5.03;;;;;;;14.75;100.00;97893.09;4166369;28;20709;-75
2023/04/28 09:14:58;;;;;;;5.53;5.00;;;;;;;14.84;100.00;97891.41;4173377;28;21334;-75
2023/04/28 09:17:01;;;;;;;5.90;5.37;;;;;;;14.94;100.00;97898.34;4169831;28;21013;-75
2023/04/28 09:19:05;;;;;;;7.63;5.30;;;;;;;15.00;100.00;97897.81;4169254;28;20623;-76
2023/04/28 09:21:09;;;;;;;8.03;7.33;;;;;;;15.03;100.00;97896.72;4161754;28;21039;-76
2023/04/28 09:23:14;;;;;;;6.40;5.70;;;;;;;14.99;100.00;97890.91;4171327;28;20634;-76
2023/04/28 09:25:21;;;;;;;7.27;5.70;;;;;;;14.99;100.00;97885.66;4168884;28;20646;-76
2023/04/28 09:27:27;;;;;;;6.00;5.30;;;;;;;15.00;100.00;97883.84;4170676;28;21013;-75
2023/04/28 09:29:31;;;;;;;6.20;5.20;;;;;;;15.03;100.00;97880.97;4157349;28;21205;-76
2023/04/28 09:31:39;;;;;;;6.63;5.97;;;;;;;15.07;100.00;97886.63;4173958;28;21195;-76
2023/04/28 09:33:56;;;;;;;6.17;5.57;;;;;;;15.15;100.00;97878.06;4172984;28;21198;-75
2023/04/28 09:36:00;;;;;;;6.00;5.40;;;;;;;15.21;100.00;97880.97;4169127;28;20689;-76
2023/04/28 09:38:03;;;;;;;6.07;5.47;;;;;;;15.28;100.00;97881.28;4166623;28;20647;-75
2023/04/28 09:40:08;;;;;;;8.33;6.27;;;;;;;15.36;100.00;97878.78;4168777;28;21231;-76